Главная страница
METAR-TAF:

METAR-TAF

Аэропорты :

Николаев, Украина

широта: 47-03-29N, долгота: 031-55-15E, высота над уровнем моря: 56 м

Текущие метеонаблюдения

Эта сводка был подготовлена 20 минут назад, в 11:00 UTC
Ветер 4 Узел переменных направлений
Температура 21°C
Влажность 49%
Давление 1015 hPa
Видимость 10 км и более
Отдельные облака на высоте 3300 фута, Кучево-дождевые.
Отдельные облака на высоте 10000 фута

METAR: UKON 261100Z VRB02MPS 9999 SCT033CB SCT100 21/10 Q1015 NOSIG

Время: 14:20 (11:20 UTC)

Прогноз

Эта сводка был подготовлена 3 часа и 17 минут назад, в 08:03 UTC
Прогноз действительный с 26-го 09 UTC до 26-го 18 UTC
Ветер 6 Узел от западный-юго-западный
Видимость 10 км и более
Рассеянная облачность на высоте 2500 фута, Кучево-дождевые.
временами
С 26-го 09 UTC до 26-го 18 UTC
Ветер 14 Узел от южный-юго-западный с порывами до 25 Узел

TAF: UKON 260803Z 2609/2618 24003MPS 9999 BKN025CB TEMPO 2609/2618 20007G13MPS

Метеонаблюдения и прогнозы для более 4000 аэропортов (сводки METAR и TAF).

Имеющиеся станции представлены на карте желтыми и красными точками.

Чтобы увидеть название станции, наведите на нее мышь.

Затем щелкните, чтобы увидеть метеонаблюдения и метеопрогнозы.

Управление картой: чтобы увеличить масштаб, щелкните зеленые кнопки с черным крестиком; чтобы уменьшить масштаб, щелкните зеленую кнопку с тире; для просмотра соседних карт щелкайте зеленые стрелки.


METAR-TAF: